createdAt,value
2022-09-17T00:02:16.419Z,6.20
2022-09-17T00:04:43.090Z,5.63
2022-09-17T00:07:09.855Z,5.95
2022-09-17T00:09:36.575Z,5.45
2022-09-17T00:12:03.281Z,6.32
2022-09-17T00:14:29.884Z,5.43
2022-09-17T00:17:01.200Z,5.45
2022-09-17T00:19:28.423Z,5.18
2022-09-17T00:21:54.990Z,5.85
2022-09-17T00:24:21.792Z,5.45
2022-09-17T00:26:48.641Z,6.22
2022-09-17T00:29:15.243Z,6.00
2022-09-17T00:31:41.988Z,5.57
2022-09-17T00:34:08.786Z,5.55
2022-09-17T00:36:36.494Z,5.82
2022-09-17T00:39:04.297Z,11.60
2022-09-17T00:41:32.166Z,6.93
2022-09-17T00:44:00.741Z,6.25
2022-09-17T00:46:36.190Z,6.03
2022-09-17T00:49:11.469Z,7.25
2022-09-17T00:51:41.711Z,6.00
2022-09-17T00:54:09.779Z,6.10
2022-09-17T00:56:38.824Z,5.57
2022-09-17T00:59:05.395Z,6.35
2022-09-17T01:01:32.028Z,5.43
2022-09-17T01:03:58.748Z,6.45
2022-09-17T01:06:36.182Z,6.75
2022-09-17T01:09:17.112Z,6.47
2022-09-17T01:12:28.676Z,7.35
2022-09-17T01:15:20.107Z,7.07
2022-09-17T01:18:05.041Z,7.65
2022-09-17T01:21:08.013Z,7.60
2022-09-17T01:23:52.005Z,8.07
2022-09-17T01:26:35.122Z,8.52
2022-09-17T01:29:06.394Z,8.80
2022-09-17T01:31:51.509Z,9.32
2022-09-17T01:34:32.493Z,9.73
2022-09-17T01:37:16.229Z,10.27
2022-09-17T01:40:07.698Z,9.52
2022-09-17T01:42:47.356Z,10.45
2022-09-17T01:45:19.624Z,10.90
2022-09-17T01:47:49.266Z,10.40
2022-09-17T01:50:24.364Z,10.75
2022-09-17T01:52:52.319Z,11.20
2022-09-17T01:55:18.876Z,11.98
2022-09-17T01:57:57.899Z,10.73
2022-09-17T02:00:24.936Z,11.32
2022-09-17T02:03:08.793Z,12.13
2022-09-17T02:05:41.677Z,11.88
2022-09-17T02:08:16.391Z,12.93
2022-09-17T02:10:45.868Z,12.13
2022-09-17T02:13:22.265Z,12.48
2022-09-17T02:15:57.729Z,12.02
2022-09-17T02:18:26.623Z,12.75
2022-09-17T02:21:02.456Z,13.27
2022-09-17T02:23:31.438Z,13.77
2022-09-17T02:26:00.789Z,14.02
2022-09-17T02:28:37.085Z,14.63
2022-09-17T02:31:03.939Z,15.20
2022-09-17T02:33:30.720Z,15.63
2022-09-17T02:35:57.335Z,15.18
2022-09-17T02:38:25.726Z,15.95
2022-09-17T02:40:56.180Z,15.75
2022-09-17T02:43:40.884Z,16.00
2022-09-17T02:46:31.535Z,16.15
2022-09-17T02:51:33.921Z,15.63
2022-09-17T02:54:30.281Z,14.85
2022-09-17T02:57:15.445Z,13.77
2022-09-17T03:00:05.360Z,14.00
2022-09-17T03:02:37.468Z,14.65
2022-09-17T03:05:04.914Z,14.43
2022-09-17T03:07:32.573Z,14.38
2022-09-17T03:09:59.554Z,14.32
2022-09-17T03:12:26.697Z,13.82
2022-09-17T03:14:53.308Z,14.00
2022-09-17T03:17:19.849Z,13.05
2022-09-17T03:19:46.409Z,13.48
2022-09-17T03:22:13.029Z,13.65
2022-09-17T03:24:39.578Z,13.32
2022-09-17T03:27:06.145Z,13.20
2022-09-17T03:29:32.753Z,13.00
2022-09-17T03:32:00.248Z,14.38
2022-09-17T03:34:26.804Z,13.98
2022-09-17T03:36:53.538Z,14.20
2022-09-17T03:39:20.100Z,14.38
2022-09-17T03:41:46.649Z,14.20
2022-09-17T03:44:13.279Z,14.65
2022-09-17T03:46:39.883Z,14.30
2022-09-17T03:49:06.463Z,14.57
2022-09-17T03:51:33.125Z,15.07
2022-09-17T03:54:00.232Z,15.15
2022-09-17T03:56:26.945Z,15.88
2022-09-17T03:58:58.213Z,15.48
2022-09-17T04:01:24.924Z,15.88
2022-09-17T04:03:51.562Z,16.90
2022-09-17T04:06:18.124Z,15.60
2022-09-17T04:08:44.760Z,16.88
2022-09-17T04:11:11.550Z,17.38
2022-09-17T04:13:38.201Z,17.70
2022-09-17T04:16:04.857Z,18.27
2022-09-17T04:18:31.540Z,17.60
2022-09-17T04:20:58.261Z,17.70
2022-09-17T04:23:24.825Z,17.70
2022-09-17T04:25:51.396Z,16.75
2022-09-17T04:28:17.951Z,17.05
2022-09-17T04:30:44.521Z,17.65
2022-09-17T04:33:11.187Z,17.30
2022-09-17T04:35:37.821Z,17.08
2022-09-17T04:38:04.425Z,17.02
2022-09-17T04:40:31.126Z,17.55
2022-09-17T04:43:03.085Z,15.43
2022-09-17T04:45:30.594Z,15.10
2022-09-17T04:47:57.417Z,14.80
2022-09-17T04:50:23.959Z,14.68
2022-09-17T04:52:50.520Z,14.73
2022-09-17T04:55:17.175Z,13.85
2022-09-17T04:57:50.910Z,13.63
2022-09-17T05:00:18.365Z,13.98
2022-09-17T05:02:50.616Z,13.50
2022-09-17T05:05:17.689Z,13.32
2022-09-17T05:07:44.373Z,14.45
2022-09-17T05:10:11.359Z,13.15
2022-09-17T05:12:38.093Z,12.60
2022-09-17T05:15:06.003Z,12.77
2022-09-17T05:17:32.820Z,12.73
2022-09-17T05:19:59.417Z,12.18
2022-09-17T05:22:25.985Z,11.90
2022-09-17T05:24:52.545Z,12.57
2022-09-17T05:27:19.192Z,12.63
2022-09-17T05:29:45.773Z,11.95
2022-09-17T05:32:12.366Z,13.25
2022-09-17T05:34:38.995Z,14.48
2022-09-17T05:37:05.711Z,13.88
2022-09-17T05:39:32.977Z,13.60
2022-09-17T05:41:59.534Z,13.98
2022-09-17T05:44:26.134Z,14.98
2022-09-17T05:46:53.140Z,14.55
2022-09-17T05:49:19.795Z,14.85
2022-09-17T05:51:46.354Z,14.57
2022-09-17T05:54:12.943Z,14.55
2022-09-17T05:56:39.517Z,15.30
2022-09-17T05:59:06.108Z,14.10
2022-09-17T06:01:32.742Z,14.57
2022-09-17T06:03:59.338Z,14.23
2022-09-17T06:06:29.340Z,13.57
2022-09-17T06:08:55.897Z,13.38
2022-09-17T06:11:22.501Z,13.15
2022-09-17T06:13:53.111Z,13.70
2022-09-17T06:18:47.493Z,12.07
2022-09-17T06:21:14.403Z,12.57
2022-09-17T06:23:43.327Z,13.30
2022-09-17T06:26:10.067Z,12.43
2022-09-17T06:28:41.279Z,11.57
2022-09-17T06:31:08.843Z,10.82
2022-09-17T06:33:36.423Z,10.18
2022-09-17T06:36:08.518Z,9.48
2022-09-17T06:38:37.759Z,9.65
2022-09-17T06:41:04.707Z,8.10
2022-09-17T06:43:31.483Z,7.20
2022-09-17T06:45:59.617Z,6.28
2022-09-17T06:48:27.302Z,8.38
2022-09-17T06:50:54.330Z,4.97
2022-09-17T06:53:21.899Z,4.03
2022-09-17T06:55:48.562Z,3.80
2022-09-17T06:58:15.165Z,3.58
2022-09-17T07:00:41.754Z,3.60
2022-09-17T07:03:09.245Z,3.67
2022-09-17T07:05:35.867Z,4.05
2022-09-17T07:08:05.757Z,5.03
2022-09-17T07:10:32.498Z,4.32
2022-09-17T07:12:59.354Z,4.88
2022-09-17T07:15:25.969Z,4.63
2022-09-17T07:17:53.199Z,4.97
2022-09-17T07:20:19.884Z,5.50
2022-09-17T07:22:46.621Z,5.00
2022-09-17T07:25:13.274Z,5.15
2022-09-17T07:27:39.896Z,4.85
2022-09-17T07:30:07.065Z,4.82
2022-09-17T07:32:33.616Z,4.63
2022-09-17T07:35:09.285Z,4.95
2022-09-17T07:37:35.882Z,4.28
2022-09-17T07:40:02.518Z,4.50
2022-09-17T07:42:29.101Z,4.25
2022-09-17T07:44:59.825Z,4.38
2022-09-17T07:47:28.393Z,4.30
2022-09-17T07:49:54.964Z,4.10
2022-09-17T07:52:21.535Z,4.65
2022-09-17T07:54:52.581Z,4.22
2022-09-17T07:57:19.151Z,4.00
2022-09-17T07:59:45.761Z,4.20
2022-09-17T08:02:13.267Z,3.38
2022-09-17T08:04:42.506Z,3.97
2022-09-17T08:07:11.684Z,2.80
2022-09-17T08:09:38.349Z,2.97
2022-09-17T08:12:05.218Z,3.20
2022-09-17T08:14:31.842Z,3.58
2022-09-17T08:16:58.436Z,3.10
2022-09-17T08:19:25.410Z,3.10
2022-09-17T08:21:52.146Z,3.20
2022-09-17T08:24:18.738Z,3.10
2022-09-17T08:26:45.291Z,3.22
2022-09-17T08:29:11.870Z,3.15
2022-09-17T08:31:38.573Z,3.45
2022-09-17T08:34:09.467Z,2.75
2022-09-17T08:36:36.762Z,2.72
2022-09-17T08:39:03.493Z,2.97
2022-09-17T08:41:58.048Z,2.80
2022-09-17T08:44:39.815Z,2.88
2022-09-17T08:47:38.811Z,1.90
2022-09-17T08:50:14.846Z,2.22
2022-09-17T08:53:06.453Z,2.30
2022-09-17T08:55:44.538Z,2.58
2022-09-17T08:58:23.248Z,2.10
2022-09-17T09:01:43.406Z,2.33
2022-09-17T09:04:36.383Z,2.33
2022-09-17T09:07:08.666Z,2.30
2022-09-17T09:09:38.221Z,2.15
2022-09-17T09:12:07.770Z,2.30
2022-09-17T09:14:49.242Z,1.55
2022-09-17T09:17:15.967Z,1.83
2022-09-17T09:19:44.219Z,1.70
2022-09-17T09:22:30.579Z,2.00
2022-09-17T09:25:04.502Z,1.88
2022-09-17T09:27:39.953Z,1.90
2022-09-17T09:30:11.016Z,1.95
2022-09-17T09:33:00.766Z,2.20
2022-09-17T09:35:31.569Z,1.97
2022-09-17T09:38:09.073Z,1.35
2022-09-17T09:40:49.126Z,1.33
2022-09-17T09:44:03.363Z,1.27
2022-09-17T09:46:52.201Z,1.70
2022-09-17T09:49:43.682Z,1.52
2022-09-17T09:52:13.673Z,1.40
2022-09-17T09:54:52.253Z,1.60
2022-09-17T09:57:22.901Z,1.42
2022-09-17T09:59:49.467Z,2.13
2022-09-17T10:02:16.805Z,1.65
2022-09-17T10:04:43.482Z,1.55
2022-09-17T10:07:11.258Z,1.75
2022-09-17T10:09:39.474Z,1.73
2022-09-17T10:12:09.058Z,1.38
2022-09-17T10:14:36.680Z,1.80
2022-09-17T10:17:22.242Z,1.98
2022-09-17T10:20:12.053Z,1.58
2022-09-17T10:22:45.749Z,1.38
2022-09-17T10:25:30.593Z,1.20
2022-09-17T10:27:58.809Z,1.73
2022-09-17T10:30:26.003Z,1.10
2022-09-17T10:33:30.606Z,1.05
2022-09-17T10:36:03.318Z,1.48
2022-09-17T10:38:56.380Z,1.05
2022-09-17T10:41:24.698Z,1.40
2022-09-17T10:43:51.404Z,1.45
2022-09-17T10:46:25.353Z,1.27
2022-09-17T10:49:10.754Z,1.60
2022-09-17T10:51:37.455Z,1.20
2022-09-17T10:54:19.236Z,1.48
2022-09-17T10:56:49.711Z,1.27
2022-09-17T10:59:38.196Z,1.15
2022-09-17T11:02:25.604Z,1.48
2022-09-17T11:05:00.126Z,1.42
2022-09-17T11:07:39.793Z,1.27
2022-09-17T11:10:12.935Z,1.20
2022-09-17T11:12:59.552Z,0.90
2022-09-17T11:16:03.942Z,0.90
2022-09-17T11:18:45.361Z,1.30
2022-09-17T11:21:32.271Z,0.90
2022-09-17T11:24:21.706Z,1.30
2022-09-17T11:27:03.705Z,1.07
2022-09-17T11:29:37.261Z,1.00
2022-09-17T11:32:49.296Z,0.90
2022-09-17T11:35:19.505Z,0.93
2022-09-17T11:38:00.138Z,0.88
2022-09-17T11:41:10.636Z,0.90
2022-09-17T11:44:04.566Z,1.30
2022-09-17T11:46:53.155Z,1.10
2022-09-17T11:49:28.418Z,1.10
2022-09-17T11:51:57.865Z,0.90
2022-09-17T11:54:33.853Z,3.43
2022-09-17T11:57:21.129Z,1.17
2022-09-17T12:00:05.908Z,0.95
2022-09-17T12:03:18.787Z,1.23
2022-09-17T12:05:51.693Z,1.02
2022-09-17T12:08:19.679Z,1.15
2022-09-17T12:11:04.791Z,0.80
2022-09-17T12:13:44.927Z,1.00
2022-09-17T12:16:14.759Z,0.90
2022-09-17T12:19:01.092Z,0.93
2022-09-17T12:21:52.693Z,0.93
2022-09-17T12:24:32.249Z,1.00
2022-09-17T12:27:24.258Z,0.87
2022-09-17T12:30:11.869Z,1.15
2022-09-17T12:32:57.431Z,1.10
2022-09-17T12:35:46.665Z,0.80
2022-09-17T12:38:24.704Z,0.80
2022-09-17T12:40:57.406Z,0.60
2022-09-17T12:43:35.317Z,0.98
2022-09-17T12:46:24.964Z,1.08
2022-09-17T12:49:07.310Z,0.95
2022-09-17T12:52:03.680Z,0.88
2022-09-17T12:54:48.777Z,1.35
2022-09-17T12:57:51.611Z,1.13
2022-09-17T13:00:18.223Z,0.80
2022-09-17T13:03:08.062Z,0.90
2022-09-17T13:06:14.991Z,0.80
2022-09-17T13:08:46.035Z,0.82
2022-09-17T13:11:37.093Z,1.23
2022-09-17T13:14:19.260Z,0.75
2022-09-17T13:16:52.498Z,1.00
2022-09-17T13:19:44.484Z,0.60
2022-09-17T13:22:17.291Z,0.65
2022-09-17T13:24:47.181Z,0.75
2022-09-17T13:27:22.500Z,0.80
2022-09-17T13:29:55.314Z,0.80
2022-09-17T13:32:33.873Z,0.75
2022-09-17T13:35:09.482Z,0.70
2022-09-17T13:37:37.475Z,1.00
2022-09-17T13:40:04.714Z,0.80
2022-09-17T13:42:33.608Z,0.65
2022-09-17T13:45:13.199Z,1.25
2022-09-17T13:47:50.664Z,0.80
2022-09-17T13:50:42.021Z,0.85
2022-09-17T13:53:14.598Z,0.90
2022-09-17T13:55:48.027Z,1.00
2022-09-17T13:58:20.744Z,0.70
2022-09-17T14:01:01.294Z,0.80
2022-09-17T14:05:58.824Z,0.73
2022-09-17T14:08:30.388Z,1.13
2022-09-17T14:10:58.792Z,0.90
2022-09-17T14:13:35.749Z,0.70
2022-09-17T14:16:02.479Z,0.63
2022-09-17T14:18:29.050Z,0.70
2022-09-17T14:21:05.606Z,0.85
2022-09-17T14:23:43.044Z,0.70
2022-09-17T14:26:14.141Z,0.95
2022-09-17T14:28:43.791Z,0.63
2022-09-17T14:31:17.552Z,0.68
2022-09-17T14:33:44.506Z,0.68
2022-09-17T14:36:14.575Z,0.60
2022-09-17T14:38:44.688Z,0.63
2022-09-17T14:41:11.354Z,0.60
2022-09-17T14:44:02.526Z,0.75
2022-09-17T14:46:40.600Z,0.63
2022-09-17T14:49:26.915Z,0.50
2022-09-17T14:51:54.329Z,0.43
2022-09-17T14:54:24.993Z,0.40
2022-09-17T14:56:58.687Z,0.60
2022-09-17T14:59:50.511Z,0.40
2022-09-17T15:02:31.769Z,1.13
2022-09-17T15:04:58.541Z,0.50
2022-09-17T15:07:25.293Z,0.40
2022-09-17T15:10:04.292Z,0.22
2022-09-17T15:12:30.872Z,0.57
2022-09-17T15:14:57.716Z,0.70
2022-09-17T15:17:24.432Z,0.40
2022-09-17T15:19:54.322Z,0.65
2022-09-17T15:22:22.171Z,0.93
2022-09-17T15:25:09.852Z,0.55
2022-09-17T15:27:38.094Z,0.50
2022-09-17T15:30:20.391Z,0.75
2022-09-17T15:32:51.874Z,0.90
2022-09-17T15:35:24.017Z,0.40
2022-09-17T15:40:39.763Z,0.70
2022-09-17T15:43:33.049Z,0.85
2022-09-17T15:46:24.596Z,0.57
2022-09-17T15:48:51.242Z,0.60
2022-09-17T15:51:28.688Z,0.40
2022-09-17T15:54:00.159Z,0.52
2022-09-17T15:56:28.281Z,0.43
2022-09-17T15:59:03.242Z,0.50
2022-09-17T16:01:29.894Z,0.50
2022-09-17T16:04:08.076Z,0.60
2022-09-17T16:06:36.197Z,0.65
2022-09-17T16:09:03.037Z,0.90
2022-09-17T16:11:32.854Z,1.17
2022-09-17T16:14:00.338Z,0.88
2022-09-17T16:16:34.245Z,0.47
2022-09-17T16:19:01.124Z,0.90
2022-09-17T16:21:28.322Z,1.05
2022-09-17T16:23:55.058Z,0.95
2022-09-17T16:26:28.045Z,0.85
2022-09-17T16:28:55.096Z,0.95
2022-09-17T16:31:21.721Z,0.70
2022-09-17T16:33:48.410Z,0.60
2022-09-17T16:36:18.066Z,0.93
2022-09-17T16:38:44.666Z,0.70
2022-09-17T16:41:11.244Z,0.70
2022-09-17T16:43:38.285Z,0.75
2022-09-17T16:46:06.785Z,0.88
2022-09-17T16:48:33.588Z,0.70
2022-09-17T16:51:01.493Z,0.60
2022-09-17T16:53:28.079Z,0.47
2022-09-17T16:55:54.660Z,0.73
2022-09-17T16:58:21.212Z,1.30
2022-09-17T17:00:47.866Z,0.55
2022-09-17T17:03:14.845Z,0.90
2022-09-17T17:05:41.523Z,1.00
2022-09-17T17:08:08.908Z,0.80
2022-09-17T17:10:35.982Z,0.77
2022-09-17T17:13:08.354Z,0.90
2022-09-17T17:15:34.926Z,0.80
2022-09-17T17:18:01.598Z,0.70
2022-09-17T17:20:28.255Z,0.80
2022-09-17T17:22:55.172Z,0.90
2022-09-17T17:25:23.771Z,0.70
2022-09-17T17:27:50.576Z,1.10
2022-09-17T17:30:17.451Z,0.95
2022-09-17T17:32:44.926Z,1.23
2022-09-17T17:35:11.609Z,1.23
2022-09-17T17:37:38.183Z,0.93
2022-09-17T17:40:07.138Z,0.82
2022-09-17T17:42:37.975Z,0.70
2022-09-17T17:45:05.665Z,0.95
2022-09-17T17:47:32.296Z,0.93
2022-09-17T17:49:59.012Z,0.80
2022-09-17T17:52:25.715Z,0.60
2022-09-17T17:54:52.763Z,1.02
2022-09-17T17:57:19.329Z,1.00
2022-09-17T17:59:45.956Z,0.98
2022-09-17T18:02:12.620Z,0.95
2022-09-17T18:04:39.252Z,1.23
2022-09-17T18:07:06.094Z,1.00
2022-09-17T18:09:33.357Z,0.88
2022-09-17T18:11:59.944Z,0.80
2022-09-17T18:14:26.497Z,0.70
2022-09-17T18:16:53.058Z,1.38
2022-09-17T18:19:20.052Z,0.93
2022-09-17T18:21:46.604Z,1.08
2022-09-17T18:24:13.204Z,14.00
2022-09-17T18:26:39.756Z,2.17
2022-09-17T18:29:08.240Z,1.23
2022-09-17T18:31:35.335Z,1.00
2022-09-17T18:34:12.580Z,1.40
2022-09-17T18:36:39.509Z,1.20
2022-09-17T18:39:44.482Z,1.23
2022-09-17T18:41:53.544Z,1.50
2022-09-17T18:44:21.620Z,1.55
2022-09-17T18:46:49.803Z,1.42
2022-09-17T18:49:16.450Z,1.10
2022-09-17T18:51:43.021Z,1.13
2022-09-17T18:54:10.477Z,1.10
2022-09-17T18:56:37.151Z,1.48
2022-09-17T18:59:08.003Z,1.02
2022-09-17T19:01:35.380Z,1.25
2022-09-17T19:04:02.414Z,1.13
2022-09-17T19:06:29.376Z,1.45
2022-09-17T19:08:59.739Z,1.77
2022-09-17T19:11:26.502Z,1.23
2022-09-17T19:13:53.097Z,1.52
2022-09-17T19:16:19.795Z,1.40
2022-09-17T19:18:46.412Z,1.52
2022-09-17T19:21:16.868Z,1.10
2022-09-17T19:23:44.531Z,1.33
2022-09-17T19:26:15.649Z,1.10
2022-09-17T19:28:42.223Z,1.52
2022-09-17T19:31:10.425Z,1.15
2022-09-17T19:33:37.226Z,1.27
2022-09-17T19:36:05.559Z,1.15
2022-09-17T19:38:32.342Z,1.15
2022-09-17T19:40:59.867Z,22.42
2022-09-17T19:43:27.045Z,1.35
2022-09-17T19:46:00.470Z,1.00
2022-09-17T19:48:27.087Z,1.40
2022-09-17T19:50:55.067Z,1.15
2022-09-17T19:53:21.690Z,1.38
2022-09-17T19:55:48.318Z,1.33
2022-09-17T19:58:15.077Z,1.15
2022-09-17T20:00:41.718Z,2.05
2022-09-17T20:03:08.897Z,1.38
2022-09-17T20:05:35.902Z,4.28
2022-09-17T20:08:03.477Z,7.28
2022-09-17T20:10:30.187Z,1.67
2022-09-17T20:12:57.506Z,1.52
2022-09-17T20:15:24.123Z,1.70
2022-09-17T20:17:50.811Z,1.40
2022-09-17T20:20:17.648Z,1.40
2022-09-17T20:22:44.211Z,1.23
2022-09-17T20:25:10.788Z,1.20
2022-09-17T20:27:37.401Z,1.52
2022-09-17T20:30:04.169Z,1.60
2022-09-17T20:32:30.754Z,1.60
2022-09-17T20:34:57.392Z,1.70
2022-09-17T20:37:55.267Z,1.40
2022-09-17T20:40:10.731Z,1.17
2022-09-17T20:42:37.306Z,1.30
2022-09-17T20:45:04.931Z,1.17
2022-09-17T20:47:31.530Z,1.40
2022-09-17T20:49:58.146Z,16.20
2022-09-17T20:52:24.715Z,2.22
2022-09-17T20:54:51.266Z,1.50
2022-09-17T20:57:17.917Z,1.33
2022-09-17T20:59:55.479Z,1.30
2022-09-17T21:02:22.260Z,1.40
2022-09-17T21:04:50.064Z,2.03
2022-09-17T21:07:16.812Z,1.67
2022-09-17T21:09:43.399Z,1.52
2022-09-17T21:12:10.106Z,1.63
2022-09-17T21:14:36.754Z,1.75
2022-09-17T21:17:03.463Z,1.83
2022-09-17T21:19:30.074Z,1.35
2022-09-17T21:21:57.324Z,1.77
2022-09-17T21:24:24.073Z,1.65
2022-09-17T21:26:51.766Z,1.50
2022-09-17T21:29:18.489Z,1.60
2022-09-17T21:31:45.152Z,1.88
2022-09-17T21:34:13.097Z,1.83
2022-09-17T21:36:40.767Z,1.73
2022-09-17T21:39:10.832Z,1.63
2022-09-17T21:41:42.145Z,1.80
2022-09-17T21:44:12.471Z,1.50
2022-09-17T21:46:39.290Z,1.90
2022-09-17T21:49:06.032Z,1.83
2022-09-17T21:51:37.590Z,1.95
2022-09-17T21:54:15.753Z,1.40
2022-09-17T21:56:42.790Z,2.35
2022-09-17T21:59:11.374Z,1.70
2022-09-17T22:01:43.810Z,2.28
2022-09-17T22:04:13.015Z,2.10
2022-09-17T22:06:39.944Z,1.60
2022-09-17T22:09:07.474Z,1.85
2022-09-17T22:11:35.867Z,1.75
2022-09-17T22:14:09.042Z,1.77
2022-09-17T22:16:37.181Z,2.33
2022-09-17T22:19:04.148Z,1.92
2022-09-17T22:21:32.077Z,2.30
2022-09-17T22:24:00.489Z,2.05
2022-09-17T22:26:29.459Z,2.20
2022-09-17T22:28:56.206Z,2.10
2022-09-17T22:31:22.837Z,2.00
2022-09-17T22:33:49.628Z,2.20
2022-09-17T22:36:20.870Z,2.33
2022-09-17T22:38:50.081Z,2.83
2022-09-17T22:41:18.188Z,2.53
2022-09-17T22:43:44.906Z,2.40
2022-09-17T22:46:20.112Z,2.78
2022-09-17T22:48:46.972Z,3.42
2022-09-17T22:51:13.632Z,2.83
2022-09-17T22:53:40.519Z,3.10
2022-09-17T22:56:08.300Z,2.72
2022-09-17T22:58:35.049Z,2.75
2022-09-17T23:01:06.435Z,2.55
2022-09-17T23:03:33.199Z,3.00
2022-09-17T23:06:04.791Z,3.38
2022-09-17T23:08:31.980Z,2.42
2022-09-17T23:10:59.850Z,3.10
2022-09-17T23:13:27.147Z,2.38
2022-09-17T23:15:53.733Z,2.88
2022-09-17T23:18:20.410Z,2.90
2022-09-17T23:21:00.218Z,3.22
2022-09-17T23:23:27.169Z,2.73
2022-09-17T23:25:54.627Z,3.03
2022-09-17T23:28:21.841Z,2.72
2022-09-17T23:30:48.459Z,3.67
2022-09-17T23:33:15.208Z,3.22
2022-09-17T23:35:41.822Z,3.20
2022-09-17T23:38:08.434Z,3.38
2022-09-17T23:40:35.180Z,3.30
2022-09-17T23:43:01.841Z,3.30
2022-09-17T23:45:28.409Z,3.13
2022-09-17T23:47:54.983Z,3.83
2022-09-17T23:50:21.545Z,3.53
2022-09-17T23:52:48.162Z,3.25
2022-09-17T23:55:14.722Z,3.15
2022-09-17T23:57:41.343Z,3.47
